createdAt,value
2022-09-12T00:01:13.029Z,95444.09
2022-09-12T00:03:40.338Z,95444.59
2022-09-12T00:06:22.553Z,95439.34
2022-09-12T00:08:50.179Z,95441.69
2022-09-12T00:11:16.939Z,95437.50
2022-09-12T00:13:43.860Z,95439.13
2022-09-12T00:16:21.762Z,95449.56
2022-09-12T00:18:49.531Z,95430.69
2022-09-12T00:21:17.933Z,95439.50
2022-09-12T00:23:44.793Z,95446.09
2022-09-12T00:26:11.621Z,95437.63
2022-09-12T00:28:39.536Z,95435.53
2022-09-12T00:31:09.066Z,95441.44
2022-09-12T00:33:36.371Z,95433.94
2022-09-12T00:36:12.870Z,95431.53
2022-09-12T00:38:42.034Z,95417.28
2022-09-12T00:41:17.259Z,95424.19
2022-09-12T00:43:47.103Z,95432.66
2022-09-12T00:46:41.716Z,95431.63
2022-09-12T00:49:23.021Z,95430.97
2022-09-12T00:52:05.833Z,95426.44
2022-09-12T00:54:38.800Z,95427.88
2022-09-12T00:57:09.573Z,95425.13
2022-09-12T00:59:44.722Z,95427.06
2022-09-12T01:02:11.833Z,95414.09
2022-09-12T01:04:41.284Z,95424.63
2022-09-12T01:07:08.746Z,95412.50
2022-09-12T01:09:36.614Z,95414.97
2022-09-12T01:12:04.083Z,95405.44
2022-09-12T01:14:31.750Z,95424.06
2022-09-12T01:16:58.478Z,95430.19
2022-09-12T01:19:43.294Z,95426.38
2022-09-12T01:22:59.510Z,95426.97
2022-09-12T01:25:55.100Z,95422.13
2022-09-12T01:28:49.409Z,95416.56
2022-09-12T01:31:19.138Z,95425.59
2022-09-12T01:33:59.838Z,95420.50
2022-09-12T01:36:46.121Z,95429.28
2022-09-12T01:39:32.811Z,95421.31
2022-09-12T01:42:31.616Z,95420.97
2022-09-12T01:45:33.717Z,95423.28
2022-09-12T01:48:10.801Z,95423.09
2022-09-12T01:50:50.686Z,95414.28
2022-09-12T01:53:29.710Z,95428.16
2022-09-12T01:56:02.976Z,95427.16
2022-09-12T01:58:42.054Z,95422.06
2022-09-12T02:01:15.784Z,95421.00
2022-09-12T02:03:50.903Z,95424.00
2022-09-12T02:06:33.596Z,95415.22
2022-09-12T02:09:29.173Z,95423.91
2022-09-12T02:12:01.427Z,95422.84
2022-09-12T02:14:45.133Z,95415.69
2022-09-12T02:17:15.469Z,95420.66
2022-09-12T02:20:06.877Z,95423.81
2022-09-12T02:22:37.404Z,95423.91
2022-09-12T02:25:07.554Z,95426.31
2022-09-12T02:27:41.446Z,95422.28
2022-09-12T02:30:09.242Z,95419.41
2022-09-12T02:32:58.897Z,95419.72
2022-09-12T02:35:33.899Z,95421.81
2022-09-12T02:38:12.562Z,95423.91
2022-09-12T02:40:39.234Z,95424.38
2022-09-12T02:43:06.481Z,95415.34
2022-09-12T02:45:35.499Z,95417.44
2022-09-12T02:48:12.779Z,95410.03
2022-09-12T02:50:40.699Z,95418.25
2022-09-12T02:53:09.319Z,95424.50
2022-09-12T02:55:38.071Z,95420.03
2022-09-12T02:58:10.542Z,95430.75
2022-09-12T03:00:51.066Z,95429.50
2022-09-12T03:03:48.184Z,95423.38
2022-09-12T03:06:21.671Z,95427.03
2022-09-12T03:08:55.656Z,95423.13
2022-09-12T03:11:46.421Z,95431.69
2022-09-12T03:14:35.776Z,95425.91
2022-09-12T03:17:02.209Z,95428.72
2022-09-12T03:19:31.462Z,95435.41
2022-09-12T03:22:04.308Z,95439.44
2022-09-12T03:24:43.295Z,95437.47
2022-09-12T03:27:25.880Z,95443.59
2022-09-12T03:29:53.690Z,95435.06
2022-09-12T03:32:20.142Z,95430.78
2022-09-12T03:34:46.620Z,95431.38
2022-09-12T03:37:13.072Z,95442.69
2022-09-12T03:39:39.576Z,95447.09
2022-09-12T03:42:06.892Z,95435.88
2022-09-12T03:44:33.358Z,95434.03
2022-09-12T03:46:59.828Z,95445.47
2022-09-12T03:49:26.297Z,95428.59
2022-09-12T03:51:52.758Z,95437.03
2022-09-12T03:54:19.259Z,95441.88
2022-09-12T03:56:45.730Z,95444.56
2022-09-12T03:59:12.212Z,95440.97
2022-09-12T04:01:38.670Z,95442.72
2022-09-12T04:04:05.342Z,95445.72
2022-09-12T04:06:31.842Z,95442.13
2022-09-12T04:08:58.665Z,95440.53
2022-09-12T04:11:25.257Z,95446.19
2022-09-12T04:13:52.027Z,95449.75
2022-09-12T04:16:19.487Z,95453.47
2022-09-12T04:18:46.498Z,95443.06
2022-09-12T04:21:19.351Z,95453.56
2022-09-12T04:23:45.884Z,95457.59
2022-09-12T04:26:13.865Z,95454.28
2022-09-12T04:28:41.447Z,95469.41
2022-09-12T04:31:12.284Z,95449.97
2022-09-12T04:33:39.452Z,95459.13
2022-09-12T04:36:08.388Z,95462.78
2022-09-12T04:38:36.247Z,95463.63
2022-09-12T04:41:23.776Z,95466.63
2022-09-12T04:43:55.468Z,95471.13
2022-09-12T04:46:21.923Z,95456.81
2022-09-12T04:48:52.219Z,95468.22
2022-09-12T04:51:25.997Z,95461.66
2022-09-12T04:53:53.954Z,95471.22
2022-09-12T04:56:21.855Z,95469.16
2022-09-12T04:58:49.062Z,95480.59
2022-09-12T05:01:21.150Z,95478.41
2022-09-12T05:03:49.438Z,95476.56
2022-09-12T05:06:21.657Z,95474.13
2022-09-12T05:08:48.678Z,95474.47
2022-09-12T05:11:22.703Z,95479.91
2022-09-12T05:13:52.004Z,95485.56
2022-09-12T05:16:19.647Z,95482.91
2022-09-12T05:18:47.329Z,95483.84
2022-09-12T05:21:16.588Z,95479.34
2022-09-12T05:23:42.992Z,95480.38
2022-09-12T05:26:13.397Z,95483.84
2022-09-12T05:28:40.374Z,95498.25
2022-09-12T05:31:10.748Z,95489.03
2022-09-12T05:33:38.683Z,95502.09
2022-09-12T05:36:07.750Z,95506.50
2022-09-12T05:38:37.475Z,95502.31
2022-09-12T05:41:17.091Z,95506.38
2022-09-12T05:43:45.222Z,95516.28
2022-09-12T05:46:16.921Z,95519.78
2022-09-12T05:48:45.496Z,95508.31
2022-09-12T05:51:17.515Z,95512.56
2022-09-12T05:53:44.012Z,95498.25
2022-09-12T05:56:19.667Z,95508.19
2022-09-12T05:58:48.342Z,95500.78
2022-09-12T06:01:17.984Z,95514.91
2022-09-12T06:03:47.224Z,95505.88
2022-09-12T06:06:14.266Z,95510.59
2022-09-12T06:08:43.850Z,95511.19
2022-09-12T06:11:13.553Z,95514.31
2022-09-12T06:13:42.229Z,95522.31
2022-09-12T06:16:11.523Z,95524.38
2022-09-12T06:18:39.633Z,95529.94
2022-09-12T06:21:08.758Z,95542.53
2022-09-12T06:23:35.413Z,95539.88
2022-09-12T06:26:02.568Z,95527.38
2022-09-12T06:28:29.130Z,95516.28
2022-09-12T06:31:04.573Z,95529.91
2022-09-12T06:33:35.481Z,95523.09
2022-09-12T06:36:06.944Z,95515.22
2022-09-12T06:38:36.858Z,95528.53
2022-09-12T06:41:05.381Z,95529.53
2022-09-12T06:43:32.402Z,95537.31
2022-09-12T06:45:59.346Z,95534.53
2022-09-12T06:48:26.109Z,95526.06
2022-09-12T06:51:01.101Z,95536.25
2022-09-12T06:53:29.120Z,95532.22
2022-09-12T06:56:00.562Z,95521.91
2022-09-12T06:58:28.095Z,95537.06
2022-09-12T07:01:03.553Z,95535.66
2022-09-12T07:03:30.612Z,95520.75
2022-09-12T07:05:57.262Z,95535.75
2022-09-12T07:08:24.026Z,95533.69
2022-09-12T07:10:50.506Z,95525.13
2022-09-12T07:13:16.982Z,95533.44
2022-09-12T07:15:43.428Z,95518.06
2022-09-12T07:18:10.984Z,95523.03
2022-09-12T07:20:39.310Z,95517.25
2022-09-12T07:23:05.786Z,95537.41
2022-09-12T07:25:32.232Z,95531.59
2022-09-12T07:27:58.875Z,95544.19
2022-09-12T07:30:25.442Z,95563.19
2022-09-12T07:32:55.136Z,95548.25
2022-09-12T07:35:21.816Z,95529.41
2022-09-12T07:37:48.305Z,95552.75
2022-09-12T07:40:14.872Z,95540.06
2022-09-12T07:42:41.363Z,95543.63
2022-09-12T07:45:08.257Z,95541.06
2022-09-12T07:47:34.988Z,95545.91
2022-09-12T07:50:01.473Z,95536.88
2022-09-12T07:52:27.992Z,95539.09
2022-09-12T07:54:54.438Z,95539.19
2022-09-12T07:57:21.043Z,95538.69
2022-09-12T07:59:52.921Z,95534.50
2022-09-12T08:02:20.169Z,95538.88
2022-09-12T08:04:48.580Z,95537.94
2022-09-12T08:07:15.832Z,95544.69
2022-09-12T08:09:42.331Z,95539.38
2022-09-12T08:12:08.850Z,95551.06
2022-09-12T08:14:35.350Z,95533.38
2022-09-12T08:17:01.829Z,95541.94
2022-09-12T08:19:28.290Z,95544.22
2022-09-12T08:21:54.760Z,95553.44
2022-09-12T08:24:21.251Z,95556.44
2022-09-12T08:26:47.734Z,95549.72
2022-09-12T08:29:14.503Z,95552.97
2022-09-12T08:31:42.552Z,95544.41
2022-09-12T08:34:09.501Z,95540.78
2022-09-12T08:36:36.312Z,95534.50
2022-09-12T08:39:06.303Z,95538.00
2022-09-12T08:41:44.559Z,95542.97
2022-09-12T08:44:39.272Z,95548.31
2022-09-12T08:47:05.689Z,95553.41
2022-09-12T08:49:42.134Z,95554.75
2022-09-12T08:52:17.127Z,95559.63
2022-09-12T08:54:45.579Z,95556.00
2022-09-12T08:57:14.421Z,95560.25
2022-09-12T08:59:46.422Z,95562.72
2022-09-12T09:02:38.759Z,95552.84
2022-09-12T09:05:21.973Z,95551.47
2022-09-12T09:08:35.527Z,95551.00
2022-09-12T09:11:18.887Z,95552.84
2022-09-12T09:14:22.076Z,95565.47
2022-09-12T09:16:51.950Z,95557.91
2022-09-12T09:19:30.637Z,95568.06
2022-09-12T09:22:07.044Z,95566.53
2022-09-12T09:24:41.907Z,95557.56
2022-09-12T09:27:40.446Z,95568.56
2022-09-12T09:30:19.251Z,95560.72
2022-09-12T09:32:56.854Z,95565.91
2022-09-12T09:35:44.929Z,95572.50
2022-09-12T09:38:29.392Z,95573.16
2022-09-12T09:41:14.357Z,95576.19
2022-09-12T09:43:40.889Z,95567.16
2022-09-12T09:46:07.731Z,95581.13
2022-09-12T09:48:55.135Z,95584.28
2022-09-12T09:51:28.412Z,95577.34
2022-09-12T09:54:01.636Z,95569.72
2022-09-12T09:56:35.360Z,95569.56
2022-09-12T09:59:26.177Z,95556.28
2022-09-12T10:02:00.594Z,95565.19
2022-09-12T10:04:41.108Z,95570.84
2022-09-12T10:07:19.456Z,95574.09
2022-09-12T10:10:15.814Z,95569.03
2022-09-12T10:12:42.868Z,95565.09
2022-09-12T10:15:25.732Z,95574.06
2022-09-12T10:17:52.718Z,95564.97
2022-09-12T10:20:31.529Z,95566.44
2022-09-12T10:23:04.032Z,95597.72
2022-09-12T10:25:30.513Z,95566.25
2022-09-12T10:28:01.141Z,95568.84
2022-09-12T10:30:28.700Z,95572.09
2022-09-12T10:33:07.605Z,95588.03
2022-09-12T10:35:45.749Z,95592.97
2022-09-12T10:38:24.584Z,95583.84
2022-09-12T10:41:03.600Z,95588.69
2022-09-12T10:43:33.136Z,95596.38
2022-09-12T10:46:19.606Z,95601.53
2022-09-12T10:48:51.837Z,95591.50
2022-09-12T10:51:24.191Z,95604.75
2022-09-12T10:53:53.678Z,95607.72
2022-09-12T10:56:30.855Z,95600.84
2022-09-12T10:59:09.326Z,95593.41
2022-09-12T11:01:41.920Z,95607.31
2022-09-12T11:04:17.167Z,95607.31
2022-09-12T11:06:58.656Z,95610.84
2022-09-12T11:09:33.393Z,95600.78
2022-09-12T11:12:17.312Z,95603.19
2022-09-12T11:14:54.484Z,95602.72
2022-09-12T11:17:55.322Z,95590.00
2022-09-12T11:20:41.718Z,95595.25
2022-09-12T11:23:28.324Z,95600.06
2022-09-12T11:26:44.540Z,95602.66
2022-09-12T11:29:29.348Z,95611.47
2022-09-12T11:32:07.774Z,95603.50
2022-09-12T11:34:40.202Z,95582.41
2022-09-12T11:37:11.019Z,95585.69
2022-09-12T11:39:40.480Z,95588.06
2022-09-12T11:42:16.940Z,95595.72
2022-09-12T11:44:47.598Z,95602.72
2022-09-12T11:47:15.058Z,95604.34
2022-09-12T11:49:47.594Z,95598.41
2022-09-12T11:52:19.900Z,95594.66
2022-09-12T11:54:57.893Z,95600.81
2022-09-12T11:57:55.875Z,95598.91
2022-09-12T12:00:24.445Z,95632.47
2022-09-12T12:03:14.647Z,95614.66
2022-09-12T12:05:52.106Z,95624.94
2022-09-12T12:08:20.724Z,95625.34
2022-09-12T12:10:53.109Z,95622.34
2022-09-12T12:13:26.877Z,95623.44
2022-09-12T12:15:58.375Z,95595.66
2022-09-12T12:18:28.438Z,95630.00
2022-09-12T12:20:57.259Z,95624.13
2022-09-12T12:23:33.645Z,95613.94
2022-09-12T12:26:03.251Z,95612.00
2022-09-12T12:28:38.634Z,95594.44
2022-09-12T12:31:05.736Z,95608.91
2022-09-12T12:33:32.258Z,95604.41
2022-09-12T12:35:59.466Z,95605.00
2022-09-12T12:38:34.187Z,95610.25
2022-09-12T12:41:19.059Z,95635.56
2022-09-12T12:43:50.232Z,95626.50
2022-09-12T12:46:18.921Z,95648.31
2022-09-12T12:48:48.597Z,95623.31
2022-09-12T12:51:17.350Z,95628.91
2022-09-12T12:53:44.012Z,95618.25
2022-09-12T12:56:43.647Z,95613.41
2022-09-12T12:59:29.460Z,95613.72
2022-09-12T13:01:58.494Z,95628.22
2022-09-12T13:04:29.796Z,95611.97
2022-09-12T13:07:08.751Z,95605.53
2022-09-12T13:09:44.139Z,95616.56
2022-09-12T13:12:23.927Z,95630.81
2022-09-12T13:14:54.654Z,95617.66
2022-09-12T13:17:39.995Z,95623.25
2022-09-12T13:20:28.308Z,95621.16
2022-09-12T13:22:55.767Z,95619.44
2022-09-12T13:25:25.503Z,95623.94
2022-09-12T13:28:18.479Z,95614.81
2022-09-12T13:31:24.190Z,95616.16
2022-09-12T13:33:57.990Z,95602.63
2022-09-12T13:36:46.425Z,95615.53
2022-09-12T13:39:30.003Z,95599.50
2022-09-12T13:42:08.602Z,95603.88
2022-09-12T13:44:44.612Z,95615.97
2022-09-12T13:47:17.099Z,95609.84
2022-09-12T13:49:44.230Z,95607.31
2022-09-12T13:52:22.395Z,95603.94
2022-09-12T13:54:53.464Z,95608.50
2022-09-12T13:57:38.087Z,95610.44
2022-09-12T14:00:19.929Z,95602.13
2022-09-12T14:02:50.304Z,95617.03
2022-09-12T14:05:22.153Z,95617.31
2022-09-12T14:07:54.613Z,95605.16
2022-09-12T14:10:28.489Z,95607.81
2022-09-12T14:12:56.621Z,95605.31
2022-09-12T14:15:30.103Z,95605.00
2022-09-12T14:18:03.233Z,95604.16
2022-09-12T14:20:34.667Z,95603.38
2022-09-12T14:23:06.535Z,95599.59
2022-09-12T14:25:39.114Z,95607.56
2022-09-12T14:28:06.174Z,95616.97
2022-09-12T14:30:37.342Z,95612.44
2022-09-12T14:33:09.762Z,95610.63
2022-09-12T14:35:43.396Z,95618.94
2022-09-12T14:38:16.212Z,95611.19
2022-09-12T14:40:59.101Z,95609.66
2022-09-12T14:43:29.498Z,95603.53
2022-09-12T14:46:02.275Z,95612.41
2022-09-12T14:48:33.026Z,95614.78
2022-09-12T14:50:59.909Z,95620.63
2022-09-12T14:53:32.526Z,95610.47
2022-09-12T14:56:11.672Z,95619.97
2022-09-12T14:58:39.796Z,95611.84
2022-09-12T15:01:06.348Z,95619.88
2022-09-12T15:03:49.579Z,95620.97
2022-09-12T15:06:28.478Z,95622.63
2022-09-12T15:08:57.390Z,95609.69
2022-09-12T15:11:24.153Z,95607.16
2022-09-12T15:13:52.170Z,95614.63
2022-09-12T15:16:18.871Z,95614.91
2022-09-12T15:18:45.596Z,95617.88
2022-09-12T15:21:16.625Z,95613.34
2022-09-12T15:23:43.102Z,95608.00
2022-09-12T15:26:12.646Z,95603.69
2022-09-12T15:28:39.330Z,95594.06
2022-09-12T15:31:11.870Z,95603.94
2022-09-12T15:33:38.479Z,95621.94
2022-09-12T15:36:13.421Z,95615.25
2022-09-12T15:38:39.932Z,95613.13
2022-09-12T15:41:11.456Z,95616.38
2022-09-12T15:43:37.936Z,95617.66
2022-09-12T15:46:06.793Z,95611.75
2022-09-12T15:48:33.415Z,95620.84
2022-09-12T15:51:01.754Z,95624.56
2022-09-12T15:53:28.313Z,95623.13
2022-09-12T15:55:54.766Z,95620.75
2022-09-12T15:58:21.265Z,95625.03
2022-09-12T16:00:47.766Z,95621.81
2022-09-12T16:03:24.375Z,95629.38
2022-09-12T16:05:56.347Z,95621.38
2022-09-12T16:08:23.183Z,95627.28
2022-09-12T16:10:55.918Z,95634.75
2022-09-12T16:13:25.980Z,95629.63
2022-09-12T16:15:56.263Z,95637.66
2022-09-12T16:18:22.774Z,95628.78
2022-09-12T16:20:52.776Z,95627.09
2022-09-12T16:23:19.278Z,95631.03
2022-09-12T16:25:46.401Z,95641.13
2022-09-12T16:28:12.928Z,95633.81
2022-09-12T16:30:39.388Z,95625.28
2022-09-12T16:33:05.852Z,95636.22
2022-09-12T16:35:32.794Z,95626.31
2022-09-12T16:37:59.264Z,95633.00
2022-09-12T16:40:25.859Z,95639.63
2022-09-12T16:42:52.346Z,95636.91
2022-09-12T16:45:18.796Z,95634.78
2022-09-12T16:47:45.272Z,95628.81
2022-09-12T16:50:11.806Z,95639.50
2022-09-12T16:52:38.299Z,95637.59
2022-09-12T16:55:05.237Z,95637.53
2022-09-12T16:57:32.914Z,95642.63
2022-09-12T16:59:59.381Z,95645.25
2022-09-12T17:02:26.538Z,95641.94
2022-09-12T17:04:53.064Z,95648.25
2022-09-12T17:07:19.902Z,95648.44
2022-09-12T17:09:48.069Z,95644.75
2022-09-12T17:12:14.830Z,95655.88
2022-09-12T17:14:41.313Z,95651.66
2022-09-12T17:17:07.816Z,95651.69
2022-09-12T17:19:34.326Z,95656.84
2022-09-12T17:22:01.117Z,95653.31
2022-09-12T17:24:27.678Z,95655.03
2022-09-12T17:26:54.248Z,95665.53
2022-09-12T17:29:21.062Z,95663.31
2022-09-12T17:31:48.172Z,95657.66
2022-09-12T17:34:16.186Z,95666.66
2022-09-12T17:36:45.677Z,95664.69
2022-09-12T17:39:13.652Z,95670.19
2022-09-12T17:41:41.799Z,95670.91
2022-09-12T17:44:11.431Z,95673.22
2022-09-12T17:46:39.148Z,95670.34
2022-09-12T17:49:15.699Z,95671.28
2022-09-12T17:51:43.880Z,95686.13
2022-09-12T17:54:18.372Z,95679.53
2022-09-12T17:56:46.585Z,95687.44
2022-09-12T17:59:21.869Z,95687.09
2022-09-12T18:02:07.465Z,95683.88
2022-09-12T18:04:34.083Z,95684.22
2022-09-12T18:07:00.666Z,95685.13
2022-09-12T18:09:28.129Z,95699.50
2022-09-12T18:11:54.870Z,95697.41
2022-09-12T18:14:21.891Z,95696.47
2022-09-12T18:16:48.843Z,95697.03
2022-09-12T18:19:15.845Z,95700.13
2022-09-12T18:21:42.375Z,95703.00
2022-09-12T18:24:09.835Z,95700.59
2022-09-12T18:26:37.029Z,95707.63
2022-09-12T18:29:03.772Z,95711.53
2022-09-12T18:31:31.100Z,95710.13
2022-09-12T18:34:02.680Z,95711.25
2022-09-12T18:36:30.760Z,95704.78
2022-09-12T18:38:58.739Z,95703.94
2022-09-12T18:41:26.203Z,95708.06
2022-09-12T18:43:57.971Z,95707.94
2022-09-12T18:46:25.655Z,95708.47
2022-09-12T18:48:52.734Z,95708.53
2022-09-12T18:51:21.621Z,95708.63
2022-09-12T18:53:52.131Z,95715.56
2022-09-12T18:56:19.684Z,95703.53
2022-09-12T18:58:50.538Z,95714.25
2022-09-12T19:01:20.430Z,95714.44
2022-09-12T19:03:47.498Z,95712.09
2022-09-12T19:06:19.790Z,95707.66
2022-09-12T19:08:46.615Z,95711.00
2022-09-12T19:11:13.915Z,95707.38
2022-09-12T19:13:42.767Z,95708.19
2022-09-12T19:16:13.753Z,95708.63
2022-09-12T19:18:41.207Z,95708.25
2022-09-12T19:21:13.431Z,95712.84
2022-09-12T19:23:40.024Z,95709.59
2022-09-12T19:26:09.914Z,95711.56
2022-09-12T19:28:36.686Z,95705.72
2022-09-12T19:31:08.459Z,95702.91
2022-09-12T19:33:35.632Z,95710.50
2022-09-12T19:36:21.948Z,95711.53
2022-09-12T19:38:54.667Z,95705.41
2022-09-12T19:41:21.533Z,95707.25
2022-09-12T19:43:48.051Z,95700.41
2022-09-12T19:46:17.446Z,95700.09
2022-09-12T19:48:44.996Z,95701.38
2022-09-12T19:51:12.030Z,95689.84
2022-09-12T19:53:39.033Z,95697.81
2022-09-12T19:56:05.957Z,95697.66
2022-09-12T19:58:37.119Z,95690.34
2022-09-12T20:01:12.647Z,95700.72
2022-09-12T20:03:40.147Z,95695.69
2022-09-12T20:06:09.342Z,95695.69
2022-09-12T20:08:37.332Z,95697.59
2022-09-12T20:11:04.394Z,95691.53
2022-09-12T20:13:30.880Z,95687.22
2022-09-12T20:16:04.899Z,95690.53
2022-09-12T20:18:31.384Z,95684.84
2022-09-12T20:20:58.017Z,95685.69
2022-09-12T20:23:24.492Z,95688.56
2022-09-12T20:25:51.340Z,95688.56
2022-09-12T20:28:17.796Z,95686.19
2022-09-12T20:30:44.263Z,95684.97
2022-09-12T20:33:10.776Z,95680.13
2022-09-12T20:35:37.234Z,95688.50
2022-09-12T20:38:03.752Z,95686.50
2022-09-12T20:40:30.201Z,95682.41
2022-09-12T20:42:56.661Z,95684.25
2022-09-12T20:45:23.120Z,95687.97
2022-09-12T20:47:49.644Z,95688.38
2022-09-12T20:50:16.185Z,95687.19
2022-09-12T20:52:42.640Z,95691.47
2022-09-12T20:55:09.923Z,95691.28
2022-09-12T20:57:36.434Z,95688.25
2022-09-12T21:00:03.467Z,95697.47
2022-09-12T21:02:30.083Z,95690.97
2022-09-12T21:04:57.337Z,95684.69
2022-09-12T21:07:23.844Z,95687.94
2022-09-12T21:09:50.350Z,95684.50
2022-09-12T21:12:16.803Z,95690.22
2022-09-12T21:14:43.268Z,95686.78
2022-09-12T21:17:09.752Z,95692.91
2022-09-12T21:19:36.289Z,95686.59
2022-09-12T21:22:02.988Z,95693.28
2022-09-12T21:24:29.685Z,95693.47
2022-09-12T21:26:56.866Z,95687.78
2022-09-12T21:29:25.759Z,95701.41
2022-09-12T21:31:52.260Z,95696.56
2022-09-12T21:34:18.791Z,95692.13
2022-09-12T21:36:45.265Z,95689.06
2022-09-12T21:39:11.734Z,95685.00
2022-09-12T21:41:38.266Z,95681.53
2022-09-12T21:44:04.790Z,95682.34
2022-09-12T21:46:31.295Z,95689.88
2022-09-12T21:48:57.778Z,95686.22
2022-09-12T21:51:24.274Z,95685.63
2022-09-12T21:53:50.779Z,95673.22
2022-09-12T21:56:17.546Z,95680.31
2022-09-12T21:58:44.096Z,95673.44
2022-09-12T22:01:12.358Z,95675.28
2022-09-12T22:03:39.241Z,95678.91
2022-09-12T22:06:07.030Z,95678.13
2022-09-12T22:08:34.800Z,95685.44
2022-09-12T22:11:08.006Z,95680.34
2022-09-12T22:13:35.314Z,95682.16
2022-09-12T22:16:03.468Z,95690.25
2022-09-12T22:18:32.796Z,95682.13
2022-09-12T22:21:05.223Z,95687.63
2022-09-12T22:23:50.326Z,95682.53
2022-09-12T22:26:17.103Z,95681.72
2022-09-12T22:28:44.541Z,95681.72
2022-09-12T22:31:12.381Z,95686.00
2022-09-12T22:33:39.922Z,95680.50
2022-09-12T22:36:07.673Z,95688.63
2022-09-12T22:38:34.174Z,95680.31
2022-09-12T22:41:07.114Z,95689.84
2022-09-12T22:43:34.726Z,95678.06
2022-09-12T22:46:01.681Z,95684.16
2022-09-12T22:48:28.213Z,95683.16
2022-09-12T22:50:54.706Z,95682.13
2022-09-12T22:53:21.185Z,95677.66
2022-09-12T22:55:47.971Z,95676.63
2022-09-12T22:58:14.896Z,95676.41
2022-09-12T23:00:46.065Z,95671.94
2022-09-12T23:03:12.730Z,95669.88
2022-09-12T23:05:39.234Z,95670.09
2022-09-12T23:08:05.712Z,95676.78
2022-09-12T23:10:35.522Z,95671.69
2022-09-12T23:13:02.096Z,95663.00
2022-09-12T23:15:28.576Z,95662.16
2022-09-12T23:17:55.021Z,95664.56
2022-09-12T23:20:21.690Z,95660.50
2022-09-12T23:22:48.196Z,95666.59
2022-09-12T23:25:14.985Z,95653.19
2022-09-12T23:27:42.504Z,95651.16
2022-09-12T23:30:09.562Z,95653.75
2022-09-12T23:32:36.683Z,95653.53
2022-09-12T23:35:04.016Z,95649.88
2022-09-12T23:37:30.468Z,95646.81
2022-09-12T23:39:56.980Z,95654.31
2022-09-12T23:42:23.490Z,95651.88
2022-09-12T23:44:49.950Z,95651.25
2022-09-12T23:47:18.458Z,95651.88
2022-09-12T23:49:45.834Z,95644.34
2022-09-12T23:52:12.328Z,95656.72
2022-09-12T23:54:38.804Z,95650.19
2022-09-12T23:57:05.303Z,95644.72
2022-09-12T23:59:31.837Z,95652.19
